sensor_id;sensor_type;location;lat;lon;timestamp;temperature;humidity
23147;DHT22;11742;53.532;-1.478;2022-08-14T00:00:59;28.60;50.30
23147;DHT22;11742;53.532;-1.478;2022-08-14T00:03:28;28.50;50.30
23147;DHT22;11742;53.532;-1.478;2022-08-14T00:05:57;28.50;50.30
23147;DHT22;11742;53.532;-1.478;2022-08-14T00:08:24;28.50;50.30
23147;DHT22;11742;53.532;-1.478;2022-08-14T00:10:50;28.50;50.30
23147;DHT22;11742;53.532;-1.478;2022-08-14T00:13:18;28.40;50.30
23147;DHT22;11742;53.532;-1.478;2022-08-14T00:15:46;28.40;50.40
23147;DHT22;11742;53.532;-1.478;2022-08-14T00:18:20;28.30;50.40
23147;DHT22;11742;53.532;-1.478;2022-08-14T00:20:47;28.30;50.30
23147;DHT22;11742;53.532;-1.478;2022-08-14T00:23:14;28.30;50.40
23147;DHT22;11742;53.532;-1.478;2022-08-14T00:25:42;28.20;50.40
23147;DHT22;11742;53.532;-1.478;2022-08-14T00:28:11;28.20;50.40
23147;DHT22;11742;53.532;-1.478;2022-08-14T00:30:37;28.10;50.40
23147;DHT22;11742;53.532;-1.478;2022-08-14T00:33:03;28.10;50.50
23147;DHT22;11742;53.532;-1.478;2022-08-14T00:35:30;28.10;50.50
23147;DHT22;11742;53.532;-1.478;2022-08-14T00:37:56;28.00;50.50
23147;DHT22;11742;53.532;-1.478;2022-08-14T00:40:22;28.00;50.60
23147;DHT22;11742;53.532;-1.478;2022-08-14T00:42:48;28.00;50.60
23147;DHT22;11742;53.532;-1.478;2022-08-14T00:45:15;27.90;50.60
23147;DHT22;11742;53.532;-1.478;2022-08-14T00:47:42;27.90;50.50
23147;DHT22;11742;53.532;-1.478;2022-08-14T00:50:10;27.90;50.60
23147;DHT22;11742;53.532;-1.478;2022-08-14T00:52:37;27.80;50.60
23147;DHT22;11742;53.532;-1.478;2022-08-14T00:55:04;27.80;50.70
23147;DHT22;11742;53.532;-1.478;2022-08-14T00:57:32;27.80;50.80
23147;DHT22;11742;53.532;-1.478;2022-08-14T00:59:59;27.70;50.80
23147;DHT22;11742;53.532;-1.478;2022-08-14T01:02:25;27.70;50.80
23147;DHT22;11742;53.532;-1.478;2022-08-14T01:04:55;27.60;50.80
23147;DHT22;11742;53.532;-1.478;2022-08-14T01:07:23;27.60;50.70
23147;DHT22;11742;53.532;-1.478;2022-08-14T01:09:56;27.60;50.80
23147;DHT22;11742;53.532;-1.478;2022-08-14T01:12:23;27.50;50.70
23147;DHT22;11742;53.532;-1.478;2022-08-14T01:14:49;27.60;50.80
23147;DHT22;11742;53.532;-1.478;2022-08-14T01:17:20;27.50;50.80
23147;DHT22;11742;53.532;-1.478;2022-08-14T01:19:47;27.40;50.80
23147;DHT22;11742;53.532;-1.478;2022-08-14T01:22:31;27.40;50.90
23147;DHT22;11742;53.532;-1.478;2022-08-14T01:24:58;27.40;50.90
23147;DHT22;11742;53.532;-1.478;2022-08-14T01:27:24;27.30;50.90
23147;DHT22;11742;53.532;-1.478;2022-08-14T01:29:52;27.30;51.10
23147;DHT22;11742;53.532;-1.478;2022-08-14T01:32:20;27.30;51.10
23147;DHT22;11742;53.532;-1.478;2022-08-14T01:34:50;27.20;51.10
23147;DHT22;11742;53.532;-1.478;2022-08-14T01:37:19;27.20;51.10
23147;DHT22;11742;53.532;-1.478;2022-08-14T01:39:50;27.20;51.10
23147;DHT22;11742;53.532;-1.478;2022-08-14T01:42:17;27.10;51.10
23147;DHT22;11742;53.532;-1.478;2022-08-14T01:44:43;27.10;51.20
23147;DHT22;11742;53.532;-1.478;2022-08-14T01:47:16;27.10;51.30
23147;DHT22;11742;53.532;-1.478;2022-08-14T01:49:43;27.00;51.30
23147;DHT22;11742;53.532;-1.478;2022-08-14T01:52:09;27.00;51.30
23147;DHT22;11742;53.532;-1.478;2022-08-14T01:54:35;27.00;51.40
23147;DHT22;11742;53.532;-1.478;2022-08-14T01:57:01;27.00;51.30
23147;DHT22;11742;53.532;-1.478;2022-08-14T01:59:31;26.90;51.30
23147;DHT22;11742;53.532;-1.478;2022-08-14T02:02:04;26.80;51.30
23147;DHT22;11742;53.532;-1.478;2022-08-14T02:04:37;26.80;51.30
23147;DHT22;11742;53.532;-1.478;2022-08-14T02:07:04;26.80;51.30
23147;DHT22;11742;53.532;-1.478;2022-08-14T02:09:30;26.80;51.30
23147;DHT22;11742;53.532;-1.478;2022-08-14T02:12:01;26.70;51.30
23147;DHT22;11742;53.532;-1.478;2022-08-14T02:14:27;26.70;51.30
23147;DHT22;11742;53.532;-1.478;2022-08-14T02:16:53;26.70;51.30
23147;DHT22;11742;53.532;-1.478;2022-08-14T02:19:26;26.60;51.30
23147;DHT22;11742;53.532;-1.478;2022-08-14T02:21:55;26.60;51.40
23147;DHT22;11742;53.532;-1.478;2022-08-14T02:24:25;26.60;51.40
23147;DHT22;11742;53.532;-1.478;2022-08-14T02:26:55;26.60;51.40
23147;DHT22;11742;53.532;-1.478;2022-08-14T02:29:24;26.50;51.40
23147;DHT22;11742;53.532;-1.478;2022-08-14T02:31:52;26.50;51.40
23147;DHT22;11742;53.532;-1.478;2022-08-14T02:36:47;26.40;51.40
23147;DHT22;11742;53.532;-1.478;2022-08-14T02:39:14;26.40;51.40
23147;DHT22;11742;53.532;-1.478;2022-08-14T02:41:40;26.30;51.50
23147;DHT22;11742;53.532;-1.478;2022-08-14T02:44:12;26.30;51.50
23147;DHT22;11742;53.532;-1.478;2022-08-14T02:46:39;26.30;51.50
23147;DHT22;11742;53.532;-1.478;2022-08-14T02:49:09;26.20;51.40
23147;DHT22;11742;53.532;-1.478;2022-08-14T02:51:36;26.20;51.50
23147;DHT22;11742;53.532;-1.478;2022-08-14T02:54:02;26.20;51.50
23147;DHT22;11742;53.532;-1.478;2022-08-14T02:56:28;26.10;51.50
23147;DHT22;11742;53.532;-1.478;2022-08-14T02:58:55;26.10;51.50
23147;DHT22;11742;53.532;-1.478;2022-08-14T03:01:23;26.10;51.50
23147;DHT22;11742;53.532;-1.478;2022-08-14T03:03:49;26.00;51.50
23147;DHT22;11742;53.532;-1.478;2022-08-14T03:06:17;26.00;51.50
23147;DHT22;11742;53.532;-1.478;2022-08-14T03:08:45;26.00;51.50
23147;DHT22;11742;53.532;-1.478;2022-08-14T03:11:11;26.00;51.60
23147;DHT22;11742;53.532;-1.478;2022-08-14T03:13:43;25.90;51.60
23147;DHT22;11742;53.532;-1.478;2022-08-14T03:16:11;25.90;51.60
23147;DHT22;11742;53.532;-1.478;2022-08-14T03:18:41;25.80;51.70
23147;DHT22;11742;53.532;-1.478;2022-08-14T03:21:17;25.80;51.70
23147;DHT22;11742;53.532;-1.478;2022-08-14T03:23:48;25.80;51.80
23147;DHT22;11742;53.532;-1.478;2022-08-14T03:26:17;25.70;51.70
23147;DHT22;11742;53.532;-1.478;2022-08-14T03:28:49;25.70;51.80
23147;DHT22;11742;53.532;-1.478;2022-08-14T03:31:16;25.70;51.80
23147;DHT22;11742;53.532;-1.478;2022-08-14T03:33:46;25.60;51.80
23147;DHT22;11742;53.532;-1.478;2022-08-14T03:36:13;25.60;51.80
23147;DHT22;11742;53.532;-1.478;2022-08-14T03:38:43;25.60;51.90
23147;DHT22;11742;53.532;-1.478;2022-08-14T03:41:11;25.50;51.80
23147;DHT22;11742;53.532;-1.478;2022-08-14T03:43:55;25.50;51.90
23147;DHT22;11742;53.532;-1.478;2022-08-14T03:46:25;25.50;51.90
23147;DHT22;11742;53.532;-1.478;2022-08-14T03:48:53;25.50;52.00
23147;DHT22;11742;53.532;-1.478;2022-08-14T03:51:20;25.40;51.90
23147;DHT22;11742;53.532;-1.478;2022-08-14T03:53:47;25.40;52.00
23147;DHT22;11742;53.532;-1.478;2022-08-14T03:56:15;25.40;52.10
23147;DHT22;11742;53.532;-1.478;2022-08-14T03:58:49;25.30;52.10
23147;DHT22;11742;53.532;-1.478;2022-08-14T04:01:17;25.30;52.10
23147;DHT22;11742;53.532;-1.478;2022-08-14T04:03:44;25.30;52.10
23147;DHT22;11742;53.532;-1.478;2022-08-14T04:06:10;25.30;52.20
23147;DHT22;11742;53.532;-1.478;2022-08-14T04:08:37;25.20;52.10
23147;DHT22;11742;53.532;-1.478;2022-08-14T04:11:04;25.20;52.20
23147;DHT22;11742;53.532;-1.478;2022-08-14T04:13:32;25.20;52.20
23147;DHT22;11742;53.532;-1.478;2022-08-14T04:16:04;25.20;52.30
23147;DHT22;11742;53.532;-1.478;2022-08-14T04:18:30;25.10;52.30
23147;DHT22;11742;53.532;-1.478;2022-08-14T04:20:57;25.10;52.40
23147;DHT22;11742;53.532;-1.478;2022-08-14T04:23:24;25.10;52.40
23147;DHT22;11742;53.532;-1.478;2022-08-14T04:25:50;25.00;52.40
23147;DHT22;11742;53.532;-1.478;2022-08-14T04:28:19;25.00;52.40
23147;DHT22;11742;53.532;-1.478;2022-08-14T04:30:45;25.00;52.50
23147;DHT22;11742;53.532;-1.478;2022-08-14T04:33:10;25.00;52.60
23147;DHT22;11742;53.532;-1.478;2022-08-14T04:35:37;24.90;52.60
23147;DHT22;11742;53.532;-1.478;2022-08-14T04:38:07;24.90;52.60
23147;DHT22;11742;53.532;-1.478;2022-08-14T04:40:52;24.90;52.70
23147;DHT22;11742;53.532;-1.478;2022-08-14T04:43:37;24.90;52.70
23147;DHT22;11742;53.532;-1.478;2022-08-14T04:46:12;24.80;52.70
23147;DHT22;11742;53.532;-1.478;2022-08-14T04:48:39;24.80;52.80
23147;DHT22;11742;53.532;-1.478;2022-08-14T04:51:07;24.80;52.80
23147;DHT22;11742;53.532;-1.478;2022-08-14T04:53:34;24.80;52.90
23147;DHT22;11742;53.532;-1.478;2022-08-14T04:56:01;24.80;53.00
23147;DHT22;11742;53.532;-1.478;2022-08-14T04:58:29;24.70;52.90
23147;DHT22;11742;53.532;-1.478;2022-08-14T05:00:57;24.70;53.00
23147;DHT22;11742;53.532;-1.478;2022-08-14T05:03:28;24.60;53.00
23147;DHT22;11742;53.532;-1.478;2022-08-14T05:05:57;24.60;53.00
23147;DHT22;11742;53.532;-1.478;2022-08-14T05:08:24;24.60;53.00
23147;DHT22;11742;53.532;-1.478;2022-08-14T05:10:52;24.60;53.10
23147;DHT22;11742;53.532;-1.478;2022-08-14T05:13:20;24.60;53.10
23147;DHT22;11742;53.532;-1.478;2022-08-14T05:15:46;24.60;53.10
23147;DHT22;11742;53.532;-1.478;2022-08-14T05:18:13;24.50;53.20
23147;DHT22;11742;53.532;-1.478;2022-08-14T05:20:41;24.50;53.30
23147;DHT22;11742;53.532;-1.478;2022-08-14T05:23:09;24.50;53.30
23147;DHT22;11742;53.532;-1.478;2022-08-14T05:25:35;24.50;53.30
23147;DHT22;11742;53.532;-1.478;2022-08-14T05:28:22;24.40;53.30
23147;DHT22;11742;53.532;-1.478;2022-08-14T05:30:51;24.40;53.50
23147;DHT22;11742;53.532;-1.478;2022-08-14T05:33:19;24.40;53.50
23147;DHT22;11742;53.532;-1.478;2022-08-14T05:35:46;24.40;53.50
23147;DHT22;11742;53.532;-1.478;2022-08-14T05:38:15;24.40;53.50
23147;DHT22;11742;53.532;-1.478;2022-08-14T05:40:45;24.30;53.40
23147;DHT22;11742;53.532;-1.478;2022-08-14T05:43:12;24.40;53.60
23147;DHT22;11742;53.532;-1.478;2022-08-14T05:45:38;24.30;53.60
23147;DHT22;11742;53.532;-1.478;2022-08-14T05:48:05;24.30;53.60
23147;DHT22;11742;53.532;-1.478;2022-08-14T05:50:31;24.30;53.60
23147;DHT22;11742;53.532;-1.478;2022-08-14T05:52:58;24.30;53.60
23147;DHT22;11742;53.532;-1.478;2022-08-14T05:55:24;24.30;53.60
23147;DHT22;11742;53.532;-1.478;2022-08-14T05:57:55;24.30;53.60
23147;DHT22;11742;53.532;-1.478;2022-08-14T06:00:30;24.30;53.60
23147;DHT22;11742;53.532;-1.478;2022-08-14T06:02:59;24.20;53.60
23147;DHT22;11742;53.532;-1.478;2022-08-14T06:05:26;24.20;53.60
23147;DHT22;11742;53.532;-1.478;2022-08-14T06:07:52;24.30;53.80
23147;DHT22;11742;53.532;-1.478;2022-08-14T06:10:18;24.20;53.70
23147;DHT22;11742;53.532;-1.478;2022-08-14T06:12:43;24.20;53.80
23147;DHT22;11742;53.532;-1.478;2022-08-14T06:15:10;24.20;53.80
23147;DHT22;11742;53.532;-1.478;2022-08-14T06:17:46;24.20;53.90
23147;DHT22;11742;53.532;-1.478;2022-08-14T06:20:13;24.20;53.90
23147;DHT22;11742;53.532;-1.478;2022-08-14T06:22:43;24.10;53.90
23147;DHT22;11742;53.532;-1.478;2022-08-14T06:25:11;24.20;54.00
23147;DHT22;11742;53.532;-1.478;2022-08-14T06:27:37;24.10;53.90
23147;DHT22;11742;53.532;-1.478;2022-08-14T06:30:08;24.10;54.00
23147;DHT22;11742;53.532;-1.478;2022-08-14T06:32:34;24.10;53.90
23147;DHT22;11742;53.532;-1.478;2022-08-14T06:35:01;24.20;54.00
23147;DHT22;11742;53.532;-1.478;2022-08-14T06:37:41;24.10;54.00
23147;DHT22;11742;53.532;-1.478;2022-08-14T06:40:07;24.20;53.90
23147;DHT22;11742;53.532;-1.478;2022-08-14T06:42:34;24.10;53.90
23147;DHT22;11742;53.532;-1.478;2022-08-14T06:44:59;24.10;53.90
23147;DHT22;11742;53.532;-1.478;2022-08-14T06:47:28;24.10;53.90
23147;DHT22;11742;53.532;-1.478;2022-08-14T06:49:57;24.10;53.80
23147;DHT22;11742;53.532;-1.478;2022-08-14T06:52:23;24.10;53.80
23147;DHT22;11742;53.532;-1.478;2022-08-14T06:54:48;24.20;53.80
23147;DHT22;11742;53.532;-1.478;2022-08-14T06:57:17;24.20;53.80
23147;DHT22;11742;53.532;-1.478;2022-08-14T06:59:43;24.20;53.80
23147;DHT22;11742;53.532;-1.478;2022-08-14T07:02:09;24.20;53.80
23147;DHT22;11742;53.532;-1.478;2022-08-14T07:04:53;24.20;53.80
23147;DHT22;11742;53.532;-1.478;2022-08-14T07:07:41;24.20;53.70
23147;DHT22;11742;53.532;-1.478;2022-08-14T07:10:07;24.20;53.70
23147;DHT22;11742;53.532;-1.478;2022-08-14T07:12:34;24.20;53.70
23147;DHT22;11742;53.532;-1.478;2022-08-14T07:15:06;24.20;53.70
23147;DHT22;11742;53.532;-1.478;2022-08-14T07:17:32;24.20;53.70
23147;DHT22;11742;53.532;-1.478;2022-08-14T07:19:58;24.30;53.80
23147;DHT22;11742;53.532;-1.478;2022-08-14T07:22:23;24.30;53.80
23147;DHT22;11742;53.532;-1.478;2022-08-14T07:24:49;24.30;53.80
23147;DHT22;11742;53.532;-1.478;2022-08-14T07:27:15;24.30;53.80
23147;DHT22;11742;53.532;-1.478;2022-08-14T07:29:44;24.30;53.80
23147;DHT22;11742;53.532;-1.478;2022-08-14T07:32:09;24.30;53.90
23147;DHT22;11742;53.532;-1.478;2022-08-14T07:34:36;24.30;53.90
23147;DHT22;11742;53.532;-1.478;2022-08-14T07:37:02;24.40;54.00
23147;DHT22;11742;53.532;-1.478;2022-08-14T07:39:28;24.40;54.10
23147;DHT22;11742;53.532;-1.478;2022-08-14T07:41:54;24.40;54.10
23147;DHT22;11742;53.532;-1.478;2022-08-14T07:44:21;24.40;54.20
23147;DHT22;11742;53.532;-1.478;2022-08-14T07:46:47;24.40;54.20
23147;DHT22;11742;53.532;-1.478;2022-08-14T07:49:13;24.40;54.30
23147;DHT22;11742;53.532;-1.478;2022-08-14T07:51:41;24.50;55.10
23147;DHT22;11742;53.532;-1.478;2022-08-14T07:54:07;24.60;54.50
23147;DHT22;11742;53.532;-1.478;2022-08-14T07:56:33;24.60;54.60
23147;DHT22;11742;53.532;-1.478;2022-08-14T07:59:00;24.60;54.70
23147;DHT22;11742;53.532;-1.478;2022-08-14T08:01:27;24.70;55.50
23147;DHT22;11742;53.532;-1.478;2022-08-14T08:03:57;24.70;54.90
23147;DHT22;11742;53.532;-1.478;2022-08-14T08:06:27;24.70;55.00
23147;DHT22;11742;53.532;-1.478;2022-08-14T08:08:57;24.70;55.00
23147;DHT22;11742;53.532;-1.478;2022-08-14T08:11:26;24.80;55.00
23147;DHT22;11742;53.532;-1.478;2022-08-14T08:13:54;24.80;55.30
23147;DHT22;11742;53.532;-1.478;2022-08-14T08:16:26;24.90;55.10
23147;DHT22;11742;53.532;-1.478;2022-08-14T08:18:52;24.90;55.10
23147;DHT22;11742;53.532;-1.478;2022-08-14T08:21:20;25.00;55.20
23147;DHT22;11742;53.532;-1.478;2022-08-14T08:23:49;25.00;55.20
23147;DHT22;11742;53.532;-1.478;2022-08-14T08:26:28;25.00;55.20
23147;DHT22;11742;53.532;-1.478;2022-08-14T08:28:57;25.10;55.30
23147;DHT22;11742;53.532;-1.478;2022-08-14T08:31:23;25.10;55.30
23147;DHT22;11742;53.532;-1.478;2022-08-14T08:33:51;25.20;55.30
23147;DHT22;11742;53.532;-1.478;2022-08-14T08:36:17;25.20;55.30
23147;DHT22;11742;53.532;-1.478;2022-08-14T08:38:43;25.30;55.40
23147;DHT22;11742;53.532;-1.478;2022-08-14T08:41:11;25.30;55.40
23147;DHT22;11742;53.532;-1.478;2022-08-14T08:43:38;25.40;55.40
23147;DHT22;11742;53.532;-1.478;2022-08-14T08:46:09;25.40;55.40
23147;DHT22;11742;53.532;-1.478;2022-08-14T08:48:46;25.50;55.50
23147;DHT22;11742;53.532;-1.478;2022-08-14T08:59:01;25.60;55.60
23147;DHT22;11742;53.532;-1.478;2022-08-14T09:01:28;25.70;55.60
23147;DHT22;11742;53.532;-1.478;2022-08-14T09:04:04;25.70;55.60
23147;DHT22;11742;53.532;-1.478;2022-08-14T09:06:30;25.80;55.70
23147;DHT22;11742;53.532;-1.478;2022-08-14T09:08:56;25.80;55.70
23147;DHT22;11742;53.532;-1.478;2022-08-14T09:11:22;25.90;55.80
23147;DHT22;11742;53.532;-1.478;2022-08-14T09:13:52;26.00;55.80
23147;DHT22;11742;53.532;-1.478;2022-08-14T09:16:23;26.00;55.80
23147;DHT22;11742;53.532;-1.478;2022-08-14T09:18:49;26.10;55.90
23147;DHT22;11742;53.532;-1.478;2022-08-14T09:21:15;26.10;55.90
23147;DHT22;11742;53.532;-1.478;2022-08-14T09:23:43;26.20;55.90
23147;DHT22;11742;53.532;-1.478;2022-08-14T09:26:09;26.20;55.90
23147;DHT22;11742;53.532;-1.478;2022-08-14T09:28:35;26.30;55.90
23147;DHT22;11742;53.532;-1.478;2022-08-14T09:31:04;26.40;56.00
23147;DHT22;11742;53.532;-1.478;2022-08-14T09:50:19;26.70;56.10
23147;DHT22;11742;53.532;-1.478;2022-08-14T09:53:08;26.80;56.10
23147;DHT22;11742;53.532;-1.478;2022-08-14T09:55:35;26.90;56.10
23147;DHT22;11742;53.532;-1.478;2022-08-14T09:58:09;26.90;56.40
23147;DHT22;11742;53.532;-1.478;2022-08-14T10:00:55;26.90;56.60
23147;DHT22;11742;53.532;-1.478;2022-08-14T10:03:36;27.00;56.10
23147;DHT22;11742;53.532;-1.478;2022-08-14T10:06:16;27.10;56.10
23147;DHT22;11742;53.532;-1.478;2022-08-14T10:09:04;27.10;56.10
23147;DHT22;11742;53.532;-1.478;2022-08-14T10:11:35;27.20;56.10
23147;DHT22;11742;53.532;-1.478;2022-08-14T10:14:19;27.30;56.10
23147;DHT22;11742;53.532;-1.478;2022-08-14T10:16:48;27.30;56.10
23147;DHT22;11742;53.532;-1.478;2022-08-14T10:19:17;27.40;56.10
23147;DHT22;11742;53.532;-1.478;2022-08-14T10:22:03;27.40;56.10
23147;DHT22;11742;53.532;-1.478;2022-08-14T10:24:38;27.50;56.20
23147;DHT22;11742;53.532;-1.478;2022-08-14T10:29:45;27.60;56.20
23147;DHT22;11742;53.532;-1.478;2022-08-14T10:32:12;27.60;56.10
23147;DHT22;11742;53.532;-1.478;2022-08-14T10:34:39;27.70;56.10
23147;DHT22;11742;53.532;-1.478;2022-08-14T10:37:10;27.70;56.10
23147;DHT22;11742;53.532;-1.478;2022-08-14T10:39:38;27.80;56.10
23147;DHT22;11742;53.532;-1.478;2022-08-14T10:42:09;27.80;56.10
23147;DHT22;11742;53.532;-1.478;2022-08-14T10:44:43;27.90;56.10
23147;DHT22;11742;53.532;-1.478;2022-08-14T10:47:16;28.00;56.10
23147;DHT22;11742;53.532;-1.478;2022-08-14T10:49:57;28.00;56.10
23147;DHT22;11742;53.532;-1.478;2022-08-14T10:52:25;28.10;56.10
23147;DHT22;11742;53.532;-1.478;2022-08-14T10:57:45;28.20;56.10
23147;DHT22;11742;53.532;-1.478;2022-08-14T11:00:15;28.20;56.00
23147;DHT22;11742;53.532;-1.478;2022-08-14T11:02:41;28.30;56.10
23147;DHT22;11742;53.532;-1.478;2022-08-14T11:05:13;28.40;56.00
23147;DHT22;11742;53.532;-1.478;2022-08-14T11:07:55;28.40;56.00
23147;DHT22;11742;53.532;-1.478;2022-08-14T11:10:37;28.50;56.10
23147;DHT22;11742;53.532;-1.478;2022-08-14T11:13:03;28.50;56.00
23147;DHT22;11742;53.532;-1.478;2022-08-14T11:15:29;28.60;56.00
23147;DHT22;11742;53.532;-1.478;2022-08-14T11:17:55;28.60;55.90
23147;DHT22;11742;53.532;-1.478;2022-08-14T11:20:26;28.60;55.90
23147;DHT22;11742;53.532;-1.478;2022-08-14T11:22:53;28.70;55.90
23147;DHT22;11742;53.532;-1.478;2022-08-14T11:25:21;28.80;55.90
23147;DHT22;11742;53.532;-1.478;2022-08-14T11:27:55;28.80;56.50
23147;DHT22;11742;53.532;-1.478;2022-08-14T11:30:28;28.90;55.90
23147;DHT22;11742;53.532;-1.478;2022-08-14T11:32:54;28.90;55.80
23147;DHT22;11742;53.532;-1.478;2022-08-14T11:35:25;29.00;55.80
23147;DHT22;11742;53.532;-1.478;2022-08-14T11:38:00;29.00;55.70
23147;DHT22;11742;53.532;-1.478;2022-08-14T11:40:30;29.10;55.70
23147;DHT22;11742;53.532;-1.478;2022-08-14T11:43:00;29.20;55.70
23147;DHT22;11742;53.532;-1.478;2022-08-14T11:45:30;29.20;55.70
23147;DHT22;11742;53.532;-1.478;2022-08-14T11:47:57;29.30;55.60
23147;DHT22;11742;53.532;-1.478;2022-08-14T11:50:28;29.30;55.50
23147;DHT22;11742;53.532;-1.478;2022-08-14T11:52:56;29.40;55.50
23147;DHT22;11742;53.532;-1.478;2022-08-14T11:55:23;29.40;55.40
23147;DHT22;11742;53.532;-1.478;2022-08-14T11:58:03;29.50;55.30
23147;DHT22;11742;53.532;-1.478;2022-08-14T12:00:29;29.50;55.20
23147;DHT22;11742;53.532;-1.478;2022-08-14T12:02:58;29.60;55.20
23147;DHT22;11742;53.532;-1.478;2022-08-14T12:05:33;29.60;55.20
23147;DHT22;11742;53.532;-1.478;2022-08-14T12:07:59;29.70;55.10
23147;DHT22;11742;53.532;-1.478;2022-08-14T12:10:26;29.80;55.10
23147;DHT22;11742;53.532;-1.478;2022-08-14T12:12:55;29.80;55.00
23147;DHT22;11742;53.532;-1.478;2022-08-14T12:15:34;29.90;55.00
23147;DHT22;11742;53.532;-1.478;2022-08-14T12:18:03;30.00;55.00
23147;DHT22;11742;53.532;-1.478;2022-08-14T12:20:37;30.00;54.90
23147;DHT22;11742;53.532;-1.478;2022-08-14T12:23:19;30.10;54.90
23147;DHT22;11742;53.532;-1.478;2022-08-14T12:25:45;30.20;54.90
23147;DHT22;11742;53.532;-1.478;2022-08-14T12:28:11;30.20;54.70
23147;DHT22;11742;53.532;-1.478;2022-08-14T12:30:45;30.30;54.70
23147;DHT22;11742;53.532;-1.478;2022-08-14T12:33:30;30.30;54.30
23147;DHT22;11742;53.532;-1.478;2022-08-14T12:36:02;30.40;54.20
23147;DHT22;11742;53.532;-1.478;2022-08-14T12:38:55;30.40;54.20
23147;DHT22;11742;53.532;-1.478;2022-08-14T12:41:22;30.50;54.20
23147;DHT22;11742;53.532;-1.478;2022-08-14T12:43:56;30.60;54.10
23147;DHT22;11742;53.532;-1.478;2022-08-14T12:49:09;30.70;53.90
23147;DHT22;11742;53.532;-1.478;2022-08-14T12:51:35;30.70;53.80
23147;DHT22;11742;53.532;-1.478;2022-08-14T12:54:17;30.80;53.80
23147;DHT22;11742;53.532;-1.478;2022-08-14T12:56:45;30.80;53.70
23147;DHT22;11742;53.532;-1.478;2022-08-14T12:59:14;30.90;53.80
23147;DHT22;11742;53.532;-1.478;2022-08-14T13:01:43;31.00;53.70
23147;DHT22;11742;53.532;-1.478;2022-08-14T13:06:42;31.10;53.50
23147;DHT22;11742;53.532;-1.478;2022-08-14T13:09:10;31.10;53.30
23147;DHT22;11742;53.532;-1.478;2022-08-14T13:11:41;31.20;53.20
23147;DHT22;11742;53.532;-1.478;2022-08-14T13:14:15;31.20;53.00
23147;DHT22;11742;53.532;-1.478;2022-08-14T13:16:44;31.30;52.90
23147;DHT22;11742;53.532;-1.478;2022-08-14T13:19:13;31.30;52.80
23147;DHT22;11742;53.532;-1.478;2022-08-14T13:21:45;31.30;52.60
23147;DHT22;11742;53.532;-1.478;2022-08-14T13:24:12;31.40;52.50
23147;DHT22;11742;53.532;-1.478;2022-08-14T13:26:48;31.40;52.50
23147;DHT22;11742;53.532;-1.478;2022-08-14T13:29:20;31.50;52.40
23147;DHT22;11742;53.532;-1.478;2022-08-14T13:31:52;31.50;52.30
23147;DHT22;11742;53.532;-1.478;2022-08-14T13:34:23;31.60;52.20
23147;DHT22;11742;53.532;-1.478;2022-08-14T13:36:53;31.60;52.10
23147;DHT22;11742;53.532;-1.478;2022-08-14T13:39:23;31.70;52.10
23147;DHT22;11742;53.532;-1.478;2022-08-14T13:41:49;31.70;52.00
23147;DHT22;11742;53.532;-1.478;2022-08-14T13:44:15;31.80;52.00
23147;DHT22;11742;53.532;-1.478;2022-08-14T13:46:46;31.80;51.90
23147;DHT22;11742;53.532;-1.478;2022-08-14T13:49:12;31.90;51.80
23147;DHT22;11742;53.532;-1.478;2022-08-14T13:51:40;31.90;51.80
23147;DHT22;11742;53.532;-1.478;2022-08-14T13:54:14;31.90;51.60
23147;DHT22;11742;53.532;-1.478;2022-08-14T13:56:43;32.00;51.50
23147;DHT22;11742;53.532;-1.478;2022-08-14T13:59:10;32.00;51.30
23147;DHT22;11742;53.532;-1.478;2022-08-14T14:01:36;32.10;51.30
23147;DHT22;11742;53.532;-1.478;2022-08-14T14:04:06;32.10;51.20
23147;DHT22;11742;53.532;-1.478;2022-08-14T14:06:34;32.20;51.10
23147;DHT22;11742;53.532;-1.478;2022-08-14T14:09:01;32.20;50.90
23147;DHT22;11742;53.532;-1.478;2022-08-14T14:11:27;32.20;50.70
23147;DHT22;11742;53.532;-1.478;2022-08-14T14:13:56;32.30;50.60
23147;DHT22;11742;53.532;-1.478;2022-08-14T14:16:23;32.30;50.50
23147;DHT22;11742;53.532;-1.478;2022-08-14T14:18:52;32.40;50.40
23147;DHT22;11742;53.532;-1.478;2022-08-14T14:21:26;32.40;50.20
23147;DHT22;11742;53.532;-1.478;2022-08-14T14:23:53;32.40;50.20
23147;DHT22;11742;53.532;-1.478;2022-08-14T14:26:20;32.50;50.10
23147;DHT22;11742;53.532;-1.478;2022-08-14T14:28:51;32.50;50.00
23147;DHT22;11742;53.532;-1.478;2022-08-14T14:31:21;32.60;50.00
23147;DHT22;11742;53.532;-1.478;2022-08-14T14:33:51;32.60;49.80
23147;DHT22;11742;53.532;-1.478;2022-08-14T14:36:25;32.60;49.70
23147;DHT22;11742;53.532;-1.478;2022-08-14T14:38:54;32.70;49.70
23147;DHT22;11742;53.532;-1.478;2022-08-14T14:41:22;32.70;49.50
23147;DHT22;11742;53.532;-1.478;2022-08-14T14:43:50;32.70;49.40
23147;DHT22;11742;53.532;-1.478;2022-08-14T14:46:18;32.70;49.30
23147;DHT22;11742;53.532;-1.478;2022-08-14T14:48:44;32.80;49.40
23147;DHT22;11742;53.532;-1.478;2022-08-14T14:51:15;32.80;49.30
23147;DHT22;11742;53.532;-1.478;2022-08-14T14:53:42;32.80;49.10
23147;DHT22;11742;53.532;-1.478;2022-08-14T14:56:09;32.80;48.90
23147;DHT22;11742;53.532;-1.478;2022-08-14T14:58:39;32.90;48.80
23147;DHT22;11742;53.532;-1.478;2022-08-14T15:01:08;32.90;48.80
23147;DHT22;11742;53.532;-1.478;2022-08-14T15:03:36;32.90;48.90
23147;DHT22;11742;53.532;-1.478;2022-08-14T15:06:03;33.00;48.90
23147;DHT22;11742;53.532;-1.478;2022-08-14T15:08:29;33.00;48.90
23147;DHT22;11742;53.532;-1.478;2022-08-14T15:11:01;33.00;48.80
23147;DHT22;11742;53.532;-1.478;2022-08-14T15:13:28;33.00;48.90
23147;DHT22;11742;53.532;-1.478;2022-08-14T15:15:54;33.10;48.90
23147;DHT22;11742;53.532;-1.478;2022-08-14T15:18:20;33.10;48.80
23147;DHT22;11742;53.532;-1.478;2022-08-14T15:20:51;33.20;48.80
23147;DHT22;11742;53.532;-1.478;2022-08-14T15:23:19;33.20;48.80
23147;DHT22;11742;53.532;-1.478;2022-08-14T15:25:47;33.20;48.80
23147;DHT22;11742;53.532;-1.478;2022-08-14T15:28:13;33.30;48.90
23147;DHT22;11742;53.532;-1.478;2022-08-14T15:30:45;33.30;48.90
23147;DHT22;11742;53.532;-1.478;2022-08-14T15:33:12;33.40;49.00
23147;DHT22;11742;53.532;-1.478;2022-08-14T15:35:38;33.40;49.00
23147;DHT22;11742;53.532;-1.478;2022-08-14T15:38:04;33.50;49.00
23147;DHT22;11742;53.532;-1.478;2022-08-14T15:40:38;33.50;48.90
23147;DHT22;11742;53.532;-1.478;2022-08-14T15:43:07;33.50;48.90
23147;DHT22;11742;53.532;-1.478;2022-08-14T15:45:42;33.60;48.90
23147;DHT22;11742;53.532;-1.478;2022-08-14T15:48:08;33.60;48.90
23147;DHT22;11742;53.532;-1.478;2022-08-14T15:50:34;33.60;48.80
23147;DHT22;11742;53.532;-1.478;2022-08-14T15:53:00;33.70;48.90
23147;DHT22;11742;53.532;-1.478;2022-08-14T15:55:26;33.70;48.70
23147;DHT22;11742;53.532;-1.478;2022-08-14T15:57:52;33.70;48.60
23147;DHT22;11742;53.532;-1.478;2022-08-14T16:00:18;33.70;48.60
23147;DHT22;11742;53.532;-1.478;2022-08-14T16:03:03;33.80;48.80
23147;DHT22;11742;53.532;-1.478;2022-08-14T16:05:30;33.80;48.70